createdAt,value
2022-09-21T00:00:48.831Z,102341.09
2022-09-21T00:03:15.538Z,102342.78
2022-09-21T00:05:41.818Z,102346.25
2022-09-21T00:08:11.346Z,102342.78
2022-09-21T00:10:37.959Z,102347.94
2022-09-21T00:13:04.725Z,102346.16
2022-09-21T00:15:31.691Z,102336.75
2022-09-21T00:17:58.822Z,102340.66
2022-09-21T00:20:25.873Z,102343.44
2022-09-21T00:22:52.590Z,102339.94
2022-09-21T00:25:20.721Z,102336.22
2022-09-21T00:27:46.990Z,102334.53
2022-09-21T00:30:13.401Z,102328.84
2022-09-21T00:32:39.691Z,102337.34
2022-09-21T00:35:06.243Z,102336.72
2022-09-21T00:37:32.507Z,102339.47
2022-09-21T00:39:58.844Z,102332.38
2022-09-21T00:42:27.294Z,102343.81
2022-09-21T00:44:53.741Z,102337.03
2022-09-21T00:47:22.570Z,102341.59
2022-09-21T00:49:51.218Z,102341.84
2022-09-21T00:52:18.250Z,102335.78
2022-09-21T00:54:46.608Z,102342.06
2022-09-21T00:57:14.230Z,102338.56
2022-09-21T00:59:43.238Z,102336.97
2022-09-21T01:02:09.568Z,102339.72
2022-09-21T01:04:35.883Z,102333.81
2022-09-21T01:07:03.703Z,102345.47
2022-09-21T01:09:30.010Z,102348.75
2022-09-21T01:12:02.950Z,102339.03
2022-09-21T01:14:48.879Z,102342.72
2022-09-21T01:17:17.965Z,102341.13
2022-09-21T01:20:05.132Z,102340.19
2022-09-21T01:22:37.917Z,102342.53
2022-09-21T01:25:07.739Z,102344.66
2022-09-21T01:27:48.895Z,102335.97
2022-09-21T01:30:17.866Z,102338.00
2022-09-21T01:32:47.480Z,102333.63
2022-09-21T01:35:16.292Z,102337.69
2022-09-21T01:37:45.287Z,102346.38
2022-09-21T01:40:13.149Z,102336.72
2022-09-21T01:42:40.603Z,102338.28
2022-09-21T01:45:07.793Z,102345.19
2022-09-21T01:47:37.308Z,102337.69
2022-09-21T01:50:06.007Z,102337.03
2022-09-21T01:52:36.118Z,102342.34
2022-09-21T01:55:06.290Z,102337.25
2022-09-21T01:57:36.741Z,102346.25
2022-09-21T02:00:03.626Z,102337.88
2022-09-21T02:02:35.126Z,102335.13
2022-09-21T02:05:03.683Z,102344.03
2022-09-21T02:07:30.706Z,102341.28
2022-09-21T02:09:57.502Z,102339.38
2022-09-21T02:12:23.762Z,102330.47
2022-09-21T02:14:52.751Z,102340.31
2022-09-21T02:17:27.398Z,102335.97
2022-09-21T02:19:57.397Z,102337.88
2022-09-21T02:22:31.539Z,102342.06
2022-09-21T02:25:04.169Z,102332.09
2022-09-21T02:27:33.187Z,102340.78
2022-09-21T02:30:04.746Z,102339.06
2022-09-21T02:32:34.401Z,102339.06
2022-09-21T02:35:02.375Z,102327.63
2022-09-21T02:37:33.958Z,102338.00
2022-09-21T02:40:03.153Z,102333.75
2022-09-21T02:42:31.199Z,102339.03
2022-09-21T02:45:01.146Z,102333.84
2022-09-21T02:47:31.673Z,102336.59
2022-09-21T02:50:01.318Z,102333.63
2022-09-21T02:52:28.175Z,102330.13
2022-09-21T02:54:56.526Z,102336.16
2022-09-21T02:57:23.815Z,102332.56
2022-09-21T02:59:50.429Z,102335.03
2022-09-21T03:02:16.730Z,102327.38
2022-09-21T03:04:44.456Z,102343.91
2022-09-21T03:07:10.714Z,102337.31
2022-09-21T03:09:36.985Z,102340.16
2022-09-21T03:12:04.977Z,102344.16
2022-09-21T03:14:31.243Z,102339.28
2022-09-21T03:16:57.517Z,102343.63
2022-09-21T03:19:23.777Z,102343.63
2022-09-21T03:21:50.063Z,102337.00
2022-09-21T03:24:16.345Z,102340.34
2022-09-21T03:26:42.585Z,102340.44
2022-09-21T03:29:10.176Z,102345.72
2022-09-21T03:31:36.451Z,102347.53
2022-09-21T03:34:02.738Z,102338.03
2022-09-21T03:36:28.998Z,102344.34
2022-09-21T03:38:55.341Z,102340.09
2022-09-21T03:41:21.606Z,102339.34
2022-09-21T03:43:47.866Z,102342.22
2022-09-21T03:46:15.504Z,102347.69
2022-09-21T03:48:41.799Z,102350.31
2022-09-21T03:51:08.079Z,102352.22
2022-09-21T03:53:34.357Z,102354.84
2022-09-21T03:56:00.807Z,102362.41
2022-09-21T03:58:27.107Z,102366.19
2022-09-21T04:00:53.368Z,102363.84
2022-09-21T04:03:20.962Z,102356.03
2022-09-21T04:05:47.236Z,102360.16
2022-09-21T04:08:13.498Z,102363.47
2022-09-21T04:10:39.782Z,102361.84
2022-09-21T04:13:06.059Z,102361.31
2022-09-21T04:15:32.407Z,102357.06
2022-09-21T04:17:58.778Z,102364.03
2022-09-21T04:20:26.370Z,102358.75
2022-09-21T04:22:52.666Z,102366.88
2022-09-21T04:25:19.028Z,102363.00
2022-09-21T04:27:45.299Z,102370.09
2022-09-21T04:30:12.216Z,102363.09
2022-09-21T04:32:38.481Z,102363.94
2022-09-21T04:35:05.158Z,102371.47
2022-09-21T04:37:32.766Z,102370.25
2022-09-21T04:39:59.078Z,102371.28
2022-09-21T04:42:25.404Z,102370.53
2022-09-21T04:44:51.674Z,102371.59
2022-09-21T04:47:17.958Z,102370.00
2022-09-21T04:49:44.224Z,102373.56
2022-09-21T04:52:10.498Z,102376.22
2022-09-21T04:54:38.189Z,102373.47
2022-09-21T04:57:04.686Z,102370.75
2022-09-21T04:59:30.959Z,102376.66
2022-09-21T05:01:57.215Z,102379.22
2022-09-21T05:04:23.536Z,102375.72
2022-09-21T05:06:49.812Z,102375.72
2022-09-21T05:09:16.090Z,102375.09
2022-09-21T05:11:43.958Z,102372.63
2022-09-21T05:14:10.410Z,102385.34
2022-09-21T05:16:36.684Z,102385.47
2022-09-21T05:19:02.992Z,102378.50
2022-09-21T05:21:29.260Z,102379.59
2022-09-21T05:23:55.503Z,102383.56
2022-09-21T05:26:21.773Z,102386.66
2022-09-21T05:28:49.839Z,102389.97
2022-09-21T05:31:26.255Z,102394.31
2022-09-21T05:33:56.143Z,102394.41
2022-09-21T05:36:30.671Z,102393.38
2022-09-21T05:38:57.190Z,102400.19
2022-09-21T05:41:23.758Z,102402.25
2022-09-21T05:43:51.902Z,102402.25
2022-09-21T05:46:20.462Z,102404.78
2022-09-21T05:48:51.722Z,102402.06
2022-09-21T05:51:24.222Z,102406.59
2022-09-21T05:53:57.449Z,102409.22
2022-09-21T05:56:30.697Z,102412.63
2022-09-21T05:59:01.182Z,102414.88
2022-09-21T06:01:36.003Z,102418.03
2022-09-21T06:04:03.063Z,102423.19
2022-09-21T06:06:29.395Z,102424.88
2022-09-21T06:08:55.659Z,102423.75
2022-09-21T06:11:21.930Z,102427.16
2022-09-21T06:13:48.181Z,102417.06
2022-09-21T06:16:15.850Z,102420.91
2022-09-21T06:18:42.115Z,102423.13
2022-09-21T06:21:08.768Z,102417.34
2022-09-21T06:23:35.314Z,102430.16
2022-09-21T06:26:01.581Z,102429.78
2022-09-21T06:28:27.848Z,102427.50
2022-09-21T06:30:55.015Z,102424.38
2022-09-21T06:33:22.731Z,102421.34
2022-09-21T06:35:52.457Z,102419.47
2022-09-21T06:38:18.738Z,102424.44
2022-09-21T06:40:45.003Z,102429.34
2022-09-21T06:43:11.285Z,102428.00
2022-09-21T06:45:37.609Z,102432.06
2022-09-21T06:48:03.962Z,102429.84
2022-09-21T06:50:31.566Z,102430.28
2022-09-21T06:52:59.374Z,102429.56
2022-09-21T06:55:25.650Z,102423.72
2022-09-21T06:57:51.924Z,102431.78
2022-09-21T07:00:18.242Z,102428.34
2022-09-21T07:02:45.046Z,102427.72
2022-09-21T07:05:11.668Z,102428.91
2022-09-21T07:07:39.354Z,102421.16
2022-09-21T07:10:07.223Z,102430.91
2022-09-21T07:12:34.407Z,102417.88
2022-09-21T07:15:00.668Z,102419.78
2022-09-21T07:17:30.716Z,102430.28
2022-09-21T07:19:56.978Z,102415.41
2022-09-21T07:22:23.235Z,102425.16
2022-09-21T07:24:50.845Z,102426.94
2022-09-21T07:27:17.110Z,102430.16
2022-09-21T07:29:43.420Z,102431.28
2022-09-21T07:32:09.673Z,102429.69
2022-09-21T07:34:36.029Z,102420.94
2022-09-21T07:37:02.378Z,102427.25
2022-09-21T07:39:28.654Z,102424.88
2022-09-21T07:41:56.347Z,102426.19
2022-09-21T07:44:22.624Z,102423.63
2022-09-21T07:46:48.917Z,102424.66
2022-09-21T07:49:15.431Z,102423.00
2022-09-21T07:51:41.719Z,102422.38
2022-09-21T07:54:09.434Z,102417.22
2022-09-21T07:56:36.414Z,102423.63
2022-09-21T07:59:04.262Z,102428.09
2022-09-21T08:01:31.239Z,102422.91
2022-09-21T08:03:57.841Z,102417.88
2022-09-21T08:06:24.847Z,102424.16
2022-09-21T08:08:55.254Z,102420.75
2022-09-21T08:11:24.109Z,102419.78
2022-09-21T08:13:52.571Z,102419.78
2022-09-21T08:16:20.241Z,102411.78
2022-09-21T08:18:46.543Z,102423.72
2022-09-21T08:21:13.369Z,102420.06
2022-09-21T08:23:39.714Z,102420.59
2022-09-21T08:26:07.057Z,102418.13
2022-09-21T08:28:33.896Z,102421.72
2022-09-21T08:31:00.253Z,102421.69
2022-09-21T08:33:29.693Z,102423.47
2022-09-21T08:35:57.956Z,102425.81
2022-09-21T08:38:24.991Z,102430.38
2022-09-21T08:40:51.917Z,102425.84
2022-09-21T08:43:22.244Z,102424.66
2022-09-21T08:45:48.739Z,102429.59
2022-09-21T08:48:18.174Z,102433.03
2022-09-21T08:50:47.535Z,102429.97
2022-09-21T08:53:15.859Z,102429.72
2022-09-21T08:55:42.222Z,102427.34
2022-09-21T08:58:15.605Z,102433.56
2022-09-21T09:00:42.402Z,102428.44
2022-09-21T09:03:16.609Z,102433.13
2022-09-21T09:05:45.930Z,102435.50
2022-09-21T09:08:21.039Z,102430.50
2022-09-21T09:10:55.097Z,102431.78
2022-09-21T09:13:41.868Z,102431.97
2022-09-21T09:16:14.546Z,102441.44
2022-09-21T09:18:43.923Z,102435.78
2022-09-21T09:21:12.864Z,102436.78
2022-09-21T09:23:43.353Z,102446.09
2022-09-21T09:26:13.323Z,102438.50
2022-09-21T09:28:42.546Z,102441.59
2022-09-21T09:31:12.574Z,102441.06
2022-09-21T09:33:45.874Z,102443.97
2022-09-21T09:36:13.243Z,102441.16
2022-09-21T09:38:43.913Z,102446.78
2022-09-21T09:41:25.067Z,102439.28
2022-09-21T09:43:58.270Z,102444.63
2022-09-21T09:46:30.725Z,102443.72
2022-09-21T09:49:07.317Z,102450.03
2022-09-21T09:51:33.631Z,102447.03
2022-09-21T09:54:01.266Z,102450.06
2022-09-21T09:56:27.700Z,102441.53
2022-09-21T09:58:56.323Z,102446.84
2022-09-21T10:01:36.394Z,102443.94
2022-09-21T10:04:05.276Z,102446.53
2022-09-21T10:06:32.313Z,102439.41
2022-09-21T10:08:58.587Z,102442.81
2022-09-21T10:11:35.050Z,102441.44
2022-09-21T10:14:07.657Z,102438.34
2022-09-21T10:16:40.031Z,102434.03
2022-09-21T10:19:06.319Z,102435.50
2022-09-21T10:21:34.330Z,102435.66
2022-09-21T10:24:02.520Z,102439.16
2022-09-21T10:26:34.526Z,102435.31
2022-09-21T10:29:01.518Z,102426.06
2022-09-21T10:31:28.284Z,102426.69
2022-09-21T10:34:05.102Z,102426.75
2022-09-21T10:36:32.651Z,102431.16
2022-09-21T10:39:25.697Z,102433.28
2022-09-21T10:41:54.782Z,102429.38
2022-09-21T10:44:22.370Z,102428.53
2022-09-21T10:46:49.649Z,102428.09
2022-09-21T10:49:19.606Z,102424.75
2022-09-21T10:51:47.097Z,102423.34
2022-09-21T10:54:18.322Z,102415.88
2022-09-21T10:56:50.584Z,102414.50
2022-09-21T10:59:22.290Z,102419.88
2022-09-21T11:01:49.502Z,102417.47
2022-09-21T11:04:19.395Z,102423.09
2022-09-21T11:06:46.658Z,102416.75
2022-09-21T11:09:16.393Z,102420.72
2022-09-21T11:11:46.317Z,102416.91
2022-09-21T11:14:16.714Z,102416.13
2022-09-21T11:16:48.632Z,102418.63
2022-09-21T11:19:20.500Z,102416.94
2022-09-21T11:21:51.664Z,102410.72
2022-09-21T11:24:22.280Z,102421.28
2022-09-21T11:26:53.425Z,102417.47
2022-09-21T11:29:22.789Z,102422.00
2022-09-21T11:31:58.436Z,102412.97
2022-09-21T11:34:35.784Z,102409.13
2022-09-21T11:37:07.959Z,102404.19
2022-09-21T11:39:39.954Z,102406.13
2022-09-21T11:42:14.622Z,102402.72
2022-09-21T11:44:46.031Z,102396.00
2022-09-21T11:47:18.507Z,102396.75
2022-09-21T11:50:13.071Z,102398.28
2022-09-21T11:52:48.239Z,102396.59
2022-09-21T11:55:44.643Z,102391.66
2022-09-21T11:58:15.231Z,102393.88
2022-09-21T12:00:44.029Z,102384.41
2022-09-21T12:03:26.618Z,102384.09
2022-09-21T12:06:02.460Z,102385.47
2022-09-21T12:08:40.415Z,102388.56
2022-09-21T12:11:11.280Z,102389.66
2022-09-21T12:13:40.110Z,102390.06
2022-09-21T12:16:20.297Z,102388.94
2022-09-21T12:18:54.072Z,102380.03
2022-09-21T12:21:22.390Z,102371.81
2022-09-21T12:23:51.270Z,102374.13
2022-09-21T12:26:19.539Z,102381.88
2022-09-21T12:28:47.982Z,102375.69
2022-09-21T12:31:18.551Z,102374.97
2022-09-21T12:33:48.367Z,102382.88
2022-09-21T12:36:18.195Z,102374.91
2022-09-21T12:38:49.878Z,102366.63
2022-09-21T12:41:18.090Z,102360.03
2022-09-21T12:43:46.761Z,102369.25
2022-09-21T12:46:15.145Z,102357.69
2022-09-21T12:48:41.545Z,102356.19
2022-09-21T12:51:12.462Z,102359.56
2022-09-21T12:53:43.187Z,102354.22
2022-09-21T12:56:12.502Z,102348.31
2022-09-21T12:58:45.979Z,102346.97
2022-09-21T13:01:18.984Z,102350.94
2022-09-21T13:03:49.326Z,102339.66
2022-09-21T13:06:29.982Z,102345.66
2022-09-21T13:09:01.040Z,102347.81
2022-09-21T13:11:27.549Z,102339.41
2022-09-21T13:13:57.640Z,102343.22
2022-09-21T13:16:25.352Z,102342.69
2022-09-21T13:18:55.146Z,102339.00
2022-09-21T13:21:24.104Z,102332.50
2022-09-21T13:23:55.808Z,102334.63
2022-09-21T13:26:31.509Z,102336.63
2022-09-21T13:29:02.540Z,102329.44
2022-09-21T13:31:40.720Z,102339.16
2022-09-21T13:34:20.270Z,102335.19
2022-09-21T13:37:06.816Z,102337.56
2022-09-21T13:39:33.184Z,102328.69
2022-09-21T13:42:20.779Z,102335.38
2022-09-21T13:44:47.088Z,102330.19
2022-09-21T13:47:13.452Z,102328.88
2022-09-21T13:49:42.063Z,102325.66
2022-09-21T13:52:20.283Z,102322.84
2022-09-21T13:54:48.593Z,102321.38
2022-09-21T13:57:18.453Z,102318.06
2022-09-21T13:59:45.926Z,102308.41
2022-09-21T14:02:24.993Z,102313.31
2022-09-21T14:04:51.765Z,102306.50
2022-09-21T14:07:18.543Z,102306.53
2022-09-21T14:09:53.564Z,102304.19
2022-09-21T14:12:22.898Z,102301.75
2022-09-21T14:15:04.061Z,102299.91
2022-09-21T14:17:34.110Z,102298.75
2022-09-21T14:20:00.559Z,102291.22
2022-09-21T14:22:40.542Z,102291.75
2022-09-21T14:25:27.215Z,102294.97
2022-09-21T14:27:58.922Z,102283.72
2022-09-21T14:30:26.680Z,102281.59
2022-09-21T14:33:01.582Z,102276.53
2022-09-21T14:35:33.873Z,102277.66
2022-09-21T14:38:02.275Z,102282.19
2022-09-21T14:40:30.747Z,102276.19
2022-09-21T14:42:59.839Z,102273.50
2022-09-21T14:45:41.291Z,102283.84
2022-09-21T14:48:09.795Z,102263.69
2022-09-21T14:50:39.352Z,102262.34
2022-09-21T14:53:16.422Z,102268.19
2022-09-21T14:55:51.128Z,102279.91
2022-09-21T14:58:25.704Z,102276.34
2022-09-21T15:00:52.033Z,102270.44
2022-09-21T15:03:36.235Z,102264.94
2022-09-21T15:06:08.620Z,102258.00
2022-09-21T15:08:45.062Z,102263.84
2022-09-21T15:11:15.726Z,102263.94
2022-09-21T15:13:49.062Z,102256.16
2022-09-21T15:16:26.078Z,102255.94
2022-09-21T15:19:00.435Z,102256.84
2022-09-21T15:21:27.875Z,102253.06
2022-09-21T15:23:54.468Z,102257.69
2022-09-21T15:26:22.140Z,102253.59
2022-09-21T15:29:08.908Z,102247.34
2022-09-21T15:31:37.395Z,102245.13
2022-09-21T15:34:04.862Z,102248.28
2022-09-21T15:36:36.847Z,102247.59
2022-09-21T15:39:03.517Z,102240.59
2022-09-21T15:41:50.850Z,102239.72
2022-09-21T15:44:22.179Z,102232.78
2022-09-21T15:46:50.510Z,102230.94
2022-09-21T15:49:17.730Z,102239.91
2022-09-21T15:51:44.022Z,102238.66
2022-09-21T15:54:25.511Z,102232.00
2022-09-21T15:56:52.054Z,102229.13
2022-09-21T15:59:20.828Z,102230.94
2022-09-21T16:01:48.375Z,102230.03
2022-09-21T16:04:16.671Z,102234.84
2022-09-21T16:06:45.407Z,102225.13
2022-09-21T16:09:27.964Z,102225.28
2022-09-21T16:11:54.630Z,102227.25
2022-09-21T16:14:22.664Z,102234.16
2022-09-21T16:17:05.621Z,102233.31
2022-09-21T16:19:39.152Z,102233.22
2022-09-21T16:22:05.535Z,102223.44
2022-09-21T16:24:31.983Z,102230.22
2022-09-21T16:26:59.784Z,102228.03
2022-09-21T16:29:36.631Z,102225.66
2022-09-21T16:32:17.782Z,102220.22
2022-09-21T16:34:44.416Z,102221.50
2022-09-21T16:37:21.553Z,102218.63
2022-09-21T16:39:47.809Z,102227.38
2022-09-21T16:42:15.487Z,102223.50
2022-09-21T16:44:43.130Z,102225.63
2022-09-21T16:47:11.838Z,102223.69
2022-09-21T16:49:38.102Z,102227.81
2022-09-21T16:52:04.383Z,102232.94
2022-09-21T16:54:30.650Z,102240.41
2022-09-21T16:56:58.700Z,102233.81
2022-09-21T16:59:25.270Z,102240.59
2022-09-21T17:01:56.350Z,102238.53
2022-09-21T17:04:24.769Z,102234.72
2022-09-21T17:06:51.613Z,102237.88
2022-09-21T17:09:20.772Z,102230.56
2022-09-21T17:11:47.556Z,102228.47
2022-09-21T17:14:14.216Z,102228.06
2022-09-21T17:16:40.478Z,102231.31
2022-09-21T17:19:09.337Z,102233.59
2022-09-21T17:21:35.636Z,102233.44
2022-09-21T17:24:01.894Z,102229.69
2022-09-21T17:26:28.175Z,102240.25
2022-09-21T17:28:54.454Z,102235.78
2022-09-21T17:31:21.973Z,102232.94
2022-09-21T17:33:48.664Z,102233.66
2022-09-21T17:36:16.961Z,102236.34
2022-09-21T17:38:43.662Z,102243.38
2022-09-21T17:41:14.859Z,102244.19
2022-09-21T17:43:44.280Z,102239.72
2022-09-21T17:46:13.663Z,102243.94
2022-09-21T17:48:40.174Z,102238.28
2022-09-21T17:51:06.998Z,102240.63
2022-09-21T17:53:34.941Z,102242.59
2022-09-21T17:56:04.419Z,102239.91
2022-09-21T17:58:40.886Z,102245.47
2022-09-21T18:01:11.338Z,102241.94
2022-09-21T18:03:37.926Z,102232.94
2022-09-21T18:06:04.643Z,102244.28
2022-09-21T18:08:32.187Z,102237.22
2022-09-21T18:11:05.879Z,102236.63
2022-09-21T18:13:38.690Z,102239.56
2022-09-21T18:16:12.328Z,102239.13
2022-09-21T18:18:42.943Z,102243.28
2022-09-21T18:21:13.149Z,102259.38
2022-09-21T18:23:42.576Z,102257.00
2022-09-21T18:26:10.784Z,102251.94
2022-09-21T18:28:39.190Z,102252.59
2022-09-21T18:31:13.852Z,102256.50
2022-09-21T18:33:45.826Z,102251.53
2022-09-21T18:36:18.542Z,102254.75
2022-09-21T18:38:48.757Z,102253.09
2022-09-21T18:41:20.224Z,102245.75
2022-09-21T18:44:00.767Z,102250.41
2022-09-21T18:46:28.364Z,102254.91
2022-09-21T18:48:58.813Z,102251.53
2022-09-21T18:51:29.043Z,102254.59
2022-09-21T18:53:56.414Z,102256.91
2022-09-21T18:56:25.448Z,102257.16
2022-09-21T18:58:52.103Z,102254.03
2022-09-21T19:01:19.212Z,102257.78
2022-09-21T19:03:45.879Z,102254.78
2022-09-21T19:06:17.367Z,102251.28
2022-09-21T19:08:47.733Z,102256.59
2022-09-21T19:11:18.427Z,102254.66
2022-09-21T19:13:51.712Z,102251.75
2022-09-21T19:16:23.901Z,102256.69
2022-09-21T19:18:55.675Z,102252.94
2022-09-21T19:21:29.534Z,102263.31
2022-09-21T19:24:06.947Z,102258.97
2022-09-21T19:26:35.479Z,102260.94
2022-09-21T19:29:25.351Z,102270.00
2022-09-21T19:31:51.714Z,102264.91
2022-09-21T19:34:18.657Z,102257.06
2022-09-21T19:36:45.724Z,102262.66
2022-09-21T19:39:12.682Z,102267.72
2022-09-21T19:41:47.758Z,102265.69
2022-09-21T19:44:22.326Z,102267.03
2022-09-21T19:46:56.870Z,102263.91
2022-09-21T19:49:25.246Z,102260.75
2022-09-21T19:51:52.563Z,102261.50
2022-09-21T19:54:19.846Z,102265.50
2022-09-21T19:56:52.118Z,102259.81
2022-09-21T19:59:21.873Z,102256.69
2022-09-21T20:01:50.995Z,102252.56
2022-09-21T20:04:19.880Z,102255.59
2022-09-21T20:06:52.531Z,102250.75
2022-09-21T20:09:21.987Z,102246.69
2022-09-21T20:11:51.497Z,102256.19
2022-09-21T20:14:25.694Z,102258.72
2022-09-21T20:16:52.667Z,102253.84
2022-09-21T20:19:25.109Z,102256.38
2022-09-21T20:21:55.071Z,102256.72
2022-09-21T20:24:23.719Z,102261.53
2022-09-21T20:26:50.858Z,102262.97
2022-09-21T20:29:17.368Z,102262.75
2022-09-21T20:31:44.009Z,102264.19
2022-09-21T20:34:10.593Z,102256.94
2022-09-21T20:36:38.175Z,102259.13
2022-09-21T20:39:04.521Z,102254.88
2022-09-21T20:41:30.856Z,102262.34
2022-09-21T20:43:57.123Z,102253.69
2022-09-21T20:46:23.471Z,102248.59
2022-09-21T20:48:49.788Z,102257.63
2022-09-21T20:51:16.051Z,102249.66
2022-09-21T20:53:43.703Z,102253.91
2022-09-21T20:56:09.980Z,102254.84
2022-09-21T20:58:36.237Z,102251.94
2022-09-21T21:01:02.793Z,102257.94
2022-09-21T21:03:29.070Z,102258.28
2022-09-21T21:06:06.271Z,102268.16
2022-09-21T21:08:32.560Z,102261.25
2022-09-21T21:11:00.134Z,102261.53
2022-09-21T21:13:28.179Z,102262.59
2022-09-21T21:15:54.451Z,102257.16
2022-09-21T21:18:20.726Z,102265.72
2022-09-21T21:20:46.995Z,102265.97
2022-09-21T21:23:13.242Z,102261.53
2022-09-21T21:25:39.593Z,102262.22
2022-09-21T21:28:07.222Z,102254.25
2022-09-21T21:30:33.501Z,102265.13
2022-09-21T21:32:59.780Z,102256.66
2022-09-21T21:35:26.047Z,102257.00
2022-09-21T21:37:52.342Z,102259.25
2022-09-21T21:40:18.622Z,102253.47
2022-09-21T21:42:44.936Z,102248.25
2022-09-21T21:45:12.553Z,102250.19
2022-09-21T21:47:40.601Z,102250.63
2022-09-21T21:50:07.803Z,102247.56
2022-09-21T21:52:34.079Z,102240.56
2022-09-21T21:55:00.355Z,102241.53
2022-09-21T21:57:26.615Z,102239.97
2022-09-21T21:59:52.895Z,102243.56
2022-09-21T22:02:20.559Z,102236.78
2022-09-21T22:04:46.885Z,102242.66
2022-09-21T22:07:13.213Z,102234.94
2022-09-21T22:09:39.485Z,102240.78
2022-09-21T22:12:05.829Z,102232.94
2022-09-21T22:14:32.170Z,102238.47
2022-09-21T22:16:58.446Z,102235.81
2022-09-21T22:19:26.155Z,102238.34
2022-09-21T22:21:54.419Z,102239.31
2022-09-21T22:24:21.034Z,102235.91
2022-09-21T22:26:47.335Z,102238.66
2022-09-21T22:29:14.150Z,102227.47
2022-09-21T22:31:41.490Z,102231.28
2022-09-21T22:34:07.798Z,102235.94
2022-09-21T22:36:36.342Z,102239.03
2022-09-21T22:39:03.466Z,102238.28
2022-09-21T22:41:30.770Z,102232.16
2022-09-21T22:43:58.265Z,102237.13
2022-09-21T22:46:25.245Z,102238.84
2022-09-21T22:48:51.517Z,102240.75
2022-09-21T22:51:18.640Z,102235.53
2022-09-21T22:53:46.906Z,102231.09
2022-09-21T22:56:14.128Z,102238.94
2022-09-21T22:58:42.545Z,102228.66
2022-09-21T23:01:09.732Z,102230.81
2022-09-21T23:03:36.466Z,102236.94
2022-09-21T23:06:03.292Z,102226.78
2022-09-21T23:08:29.547Z,102232.16
2022-09-21T23:11:04.504Z,102227.09
2022-09-21T23:13:30.782Z,102231.56
2022-09-21T23:16:00.304Z,102230.72
2022-09-21T23:18:26.793Z,102231.88
2022-09-21T23:20:56.515Z,102227.84
2022-09-21T23:23:22.793Z,102230.59
2022-09-21T23:25:49.069Z,102219.66
2022-09-21T23:28:16.676Z,102221.78
2022-09-21T23:30:42.938Z,102225.59
2022-09-21T23:33:09.212Z,102227.94
2022-09-21T23:35:35.472Z,102223.69
2022-09-21T23:38:01.746Z,102220.28
2022-09-21T23:40:28.103Z,102228.47
2022-09-21T23:42:54.419Z,102217.75
2022-09-21T23:45:22.039Z,102221.91
2022-09-21T23:47:48.311Z,102214.06
2022-09-21T23:50:14.595Z,102223.38
2022-09-21T23:52:40.880Z,102222.84
2022-09-21T23:55:07.534Z,102216.19
2022-09-21T23:57:33.813Z,102222.63
